Time;durP1;ratioP1;P1;durP2;ratioP2;P2;SDS_P1;SDS_P2;PMS_P1;PMS_P2;Temp;Humidity;BMP_temperature;BMP_pressure;BME280_temperature;BME280_humidity;BME280_pressure;Samples;Min_cycle;Max_cycle;Signal;HPM_P1;HPM_P2
2022/11/21 00:00:30;;;;;;;30.02;21.02;;;;;;;;;;5103762;28;20050;-68
2022/11/21 00:02:58;;;;;;;29.77;21.20;;;;;;;;;;5085973;28;20093;-68
2022/11/21 00:05:24;;;;;;;29.27;21.35;;;;;;;;;;5103154;28;20048;-68
2022/11/21 00:07:50;;;;;;;31.15;20.85;;;;;;;;;;5102215;28;20043;-68
2022/11/21 00:10:16;;;;;;;30.35;21.42;;;;;;;;;;5085305;28;20113;-68
2022/11/21 00:12:42;;;;;;;29.40;21.70;;;;;;;;;;5086197;28;20055;-68
2022/11/21 00:15:08;;;;;;;30.88;20.98;;;;;;;;;;5084411;28;20070;-68
2022/11/21 00:17:34;;;;;;;30.05;21.98;;;;;;;;;;5085239;28;20052;-67
2022/11/21 00:20:00;;;;;;;28.88;21.02;;;;;;;;;;5103332;28;20039;-68
2022/11/21 00:22:26;;;;;;;29.42;21.05;;;;;;;;;;5085936;28;20052;-69
2022/11/21 00:24:52;;;;;;;31.05;22.10;;;;;;;;;;5084993;28;20046;-67
2022/11/21 00:27:18;;;;;;;29.92;20.73;;;;;;;;;;5086834;28;20418;-69
2022/11/21 00:29:44;;;;;;;34.13;21.17;;;;;;;;;;5100497;27;20115;-68
2022/11/21 00:32:10;;;;;;;28.67;21.13;;;;;;;;;;5086345;28;20047;-68
2022/11/21 00:34:36;;;;;;;31.55;21.58;;;;;;;;;;5085224;28;20047;-68
2022/11/21 00:37:02;;;;;;;32.08;21.83;;;;;;;;;;5087028;28;20050;-67
2022/11/21 00:39:28;;;;;;;31.17;21.23;;;;;;;;;;5085283;28;21010;-69
2022/11/21 00:41:54;;;;;;;29.10;21.60;;;;;;;;;;5083168;28;20040;-67
2022/11/21 00:44:20;;;;;;;30.80;20.92;;;;;;;;;;5086116;28;20509;-67
2022/11/21 00:46:46;;;;;;;31.60;21.75;;;;;;;;;;5088499;28;20130;-67
2022/11/21 00:49:12;;;;;;;29.92;21.23;;;;;;;;;;5101940;28;20124;-69
2022/11/21 00:51:38;;;;;;;31.00;21.60;;;;;;;;;;5103292;28;20439;-68
2022/11/21 00:54:04;;;;;;;29.15;21.08;;;;;;;;;;5101640;28;20048;-67
2022/11/21 00:56:30;;;;;;;30.67;21.42;;;;;;;;;;5099051;28;20069;-68
2022/11/21 00:58:56;;;;;;;28.98;19.85;;;;;;;;;;5085078;28;20052;-69
2022/11/21 01:01:22;;;;;;;31.85;21.70;;;;;;;;;;5103511;28;20054;-68
2022/11/21 01:03:48;;;;;;;28.73;20.90;;;;;;;;;;5085424;28;20043;-67
2022/11/21 01:06:15;;;;;;;32.13;21.45;;;;;;;;;;5085998;28;20052;-68
2022/11/21 01:08:42;;;;;;;29.65;20.95;;;;;;;;;;5085092;28;20051;-68
2022/11/21 01:11:10;;;;;;;30.75;20.73;;;;;;;;;;5102813;28;20101;-67
2022/11/21 01:13:36;;;;;;;30.98;21.38;;;;;;;;;;5103385;28;20050;-67
2022/11/21 01:16:06;;;;;;;28.48;20.00;;;;;;;;;;5101623;28;20514;-67
2022/11/21 01:18:33;;;;;;;33.30;21.13;;;;;;;;;;5100227;28;20073;-67
2022/11/21 01:21:00;;;;;;;30.08;20.73;;;;;;;;;;5080739;28;20039;-67
2022/11/21 01:23:27;;;;;;;31.55;21.95;;;;;;;;;;5101088;28;20044;-67
2022/11/21 01:25:53;;;;;;;28.90;20.85;;;;;;;;;;5087333;27;20039;-68
2022/11/21 01:28:19;;;;;;;28.95;21.17;;;;;;;;;;5104880;28;20509;-67
2022/11/21 01:30:45;;;;;;;29.50;20.77;;;;;;;;;;5103024;28;20031;-67
2022/11/21 01:33:11;;;;;;;28.25;20.50;;;;;;;;;;5086157;28;20040;-67
2022/11/21 01:35:36;;;;;;;29.65;20.52;;;;;;;;;;5100632;28;20050;-66
2022/11/21 01:38:02;;;;;;;31.15;22.27;;;;;;;;;;5087458;28;20035;-67
2022/11/21 01:40:28;;;;;;;30.65;21.63;;;;;;;;;;5080897;28;20079;-67
2022/11/21 01:42:59;;;;;;;28.48;21.00;;;;;;;;;;5101024;27;20040;-67
2022/11/21 01:45:44;;;;;;;29.30;21.33;;;;;;;;;;5097935;28;20478;-66
2022/11/21 01:48:10;;;;;;;30.73;20.15;;;;;;;;;;5084526;28;20047;-67
2022/11/21 01:50:36;;;;;;;28.73;20.45;;;;;;;;;;5083547;28;20134;-67
2022/11/21 01:53:02;;;;;;;31.52;21.02;;;;;;;;;;5083432;28;20039;-67
2022/11/21 01:55:28;;;;;;;30.70;20.88;;;;;;;;;;5085721;28;20204;-68
2022/11/21 01:57:54;;;;;;;30.23;20.45;;;;;;;;;;5084476;28;20037;-68
2022/11/21 02:00:23;;;;;;;31.65;22.42;;;;;;;;;;5083064;28;20044;-67
2022/11/21 02:02:52;;;;;;;32.20;22.30;;;;;;;;;;5102386;28;20526;-67
2022/11/21 02:05:20;;;;;;;32.92;22.15;;;;;;;;;;5080546;28;20105;-68
2022/11/21 02:07:47;;;;;;;30.60;21.92;;;;;;;;;;5067619;28;20147;-67
2022/11/21 02:10:13;;;;;;;34.28;22.77;;;;;;;;;;5083803;28;20132;-67
2022/11/21 02:12:50;;;;;;;33.67;22.38;;;;;;;;;;5101229;27;20421;-67
2022/11/21 02:15:21;;;;;;;32.00;21.02;;;;;;;;;;5080917;28;20055;-67
2022/11/21 02:17:47;;;;;;;30.08;21.38;;;;;;;;;;5085111;28;20056;-67
2022/11/21 02:20:15;;;;;;;36.30;22.52;;;;;;;;;;5103031;27;20097;-67
2022/11/21 02:22:48;;;;;;;31.40;21.95;;;;;;;;;;5082887;28;20043;-67
2022/11/21 02:25:14;;;;;;;35.20;22.10;;;;;;;;;;5083016;28;20056;-69
2022/11/21 02:27:40;;;;;;;31.50;22.90;;;;;;;;;;5085754;27;20046;-67
2022/11/21 02:30:07;;;;;;;31.60;21.88;;;;;;;;;;5102966;27;20047;-67
2022/11/21 02:32:35;;;;;;;34.80;23.10;;;;;;;;;;5083263;28;20083;-67
2022/11/21 02:35:01;;;;;;;32.13;21.92;;;;;;;;;;5081407;28;21923;-69
2022/11/21 02:37:27;;;;;;;30.95;21.95;;;;;;;;;;5099418;27;20047;-67
2022/11/21 02:39:54;;;;;;;31.48;22.13;;;;;;;;;;5094979;28;20059;-68
2022/11/21 02:42:41;;;;;;;32.05;22.20;;;;;;;;;;5079957;28;20097;-67
2022/11/21 02:45:22;;;;;;;29.05;21.00;;;;;;;;;;5083859;28;20039;-67
2022/11/21 02:47:49;;;;;;;29.83;21.63;;;;;;;;;;5100247;28;20047;-69
2022/11/21 02:50:15;;;;;;;34.75;22.40;;;;;;;;;;5102280;28;20048;-68
2022/11/21 02:52:41;;;;;;;30.20;22.10;;;;;;;;;;5084596;28;20370;-69
2022/11/21 02:55:10;;;;;;;31.83;22.15;;;;;;;;;;5083153;28;20075;-67
2022/11/21 02:57:36;;;;;;;30.25;21.30;;;;;;;;;;5084604;28;20636;-69
2022/11/21 03:00:03;;;;;;;32.47;22.98;;;;;;;;;;5081525;28;20134;-68
2022/11/21 03:02:29;;;;;;;29.45;21.73;;;;;;;;;;5084092;28;20494;-68
2022/11/21 03:04:55;;;;;;;33.42;21.95;;;;;;;;;;5082743;28;20050;-68
2022/11/21 03:07:21;;;;;;;32.00;22.48;;;;;;;;;;5079300;28;20047;-68
2022/11/21 03:09:47;;;;;;;32.45;22.42;;;;;;;;;;5083647;28;21938;-66
2022/11/21 03:12:13;;;;;;;28.23;20.45;;;;;;;;;;5099575;28;20077;-67
2022/11/21 03:14:39;;;;;;;30.52;21.25;;;;;;;;;;5082065;28;20058;-67
2022/11/21 03:17:05;;;;;;;29.92;21.08;;;;;;;;;;5101444;28;20039;-68
2022/11/21 03:19:31;;;;;;;27.67;20.52;;;;;;;;;;5083202;28;20132;-68
2022/11/21 03:21:57;;;;;;;28.90;21.05;;;;;;;;;;5080223;28;20047;-67
2022/11/21 03:24:23;;;;;;;29.92;21.38;;;;;;;;;;5082175;28;20119;-66
2022/11/21 03:26:49;;;;;;;28.88;21.48;;;;;;;;;;5082172;28;20039;-66
2022/11/21 03:29:14;;;;;;;29.30;21.58;;;;;;;;;;5083720;28;20529;-66
2022/11/21 03:31:40;;;;;;;33.58;22.17;;;;;;;;;;5099491;28;20165;-66
2022/11/21 03:34:07;;;;;;;31.23;21.02;;;;;;;;;;5099609;28;20135;-66
2022/11/21 03:36:33;;;;;;;28.77;20.92;;;;;;;;;;5083246;28;20043;-66
2022/11/21 03:38:59;;;;;;;29.15;20.45;;;;;;;;;;5083254;28;20074;-66
2022/11/21 03:41:29;;;;;;;28.73;20.38;;;;;;;;;;5085690;28;20040;-68
2022/11/21 03:43:59;;;;;;;26.58;20.25;;;;;;;;;;5085354;28;20046;-67
2022/11/21 03:46:25;;;;;;;26.75;18.75;;;;;;;;;;5083678;28;20046;-66
2022/11/21 03:48:51;;;;;;;31.25;19.73;;;;;;;;;;5082448;28;20043;-66
2022/11/21 03:51:17;;;;;;;26.48;19.42;;;;;;;;;;5084040;28;20047;-66
2022/11/21 03:53:43;;;;;;;28.42;19.73;;;;;;;;;;5084888;28;20047;-66
2022/11/21 03:56:10;;;;;;;27.70;19.08;;;;;;;;;;5084736;28;20047;-67
2022/11/21 03:58:36;;;;;;;31.00;20.92;;;;;;;;;;5080897;28;20043;-66
2022/11/21 04:01:02;;;;;;;30.90;20.00;;;;;;;;;;5081375;28;20047;-67
2022/11/21 04:03:28;;;;;;;29.80;19.92;;;;;;;;;;5081475;28;20418;-69
2022/11/21 04:05:54;;;;;;;27.20;19.80;;;;;;;;;;5084985;28;20044;-68
2022/11/21 04:08:20;;;;;;;28.98;19.73;;;;;;;;;;5084866;28;20057;-69
2022/11/21 04:10:46;;;;;;;29.33;20.67;;;;;;;;;;5102422;28;20043;-69
2022/11/21 04:13:13;;;;;;;28.92;20.83;;;;;;;;;;5084573;28;20044;-68
2022/11/21 04:15:40;;;;;;;27.95;19.40;;;;;;;;;;5082556;28;20047;-68
2022/11/21 04:18:06;;;;;;;25.60;17.98;;;;;;;;;;5084193;28;20498;-69
2022/11/21 04:20:32;;;;;;;26.25;18.65;;;;;;;;;;5083036;28;20047;-70
2022/11/21 04:22:58;;;;;;;25.15;17.90;;;;;;;;;;5080789;28;20478;-70
2022/11/21 04:25:30;;;;;;;24.53;17.43;;;;;;;;;;5083214;27;20040;-70
2022/11/21 04:27:57;;;;;;;26.42;17.75;;;;;;;;;;5108967;27;20039;-70
2022/11/21 04:30:23;;;;;;;25.80;18.27;;;;;;;;;;5105722;28;20704;-70
2022/11/21 04:32:53;;;;;;;28.30;18.88;;;;;;;;;;5084531;28;20052;-71
2022/11/21 04:35:19;;;;;;;28.65;19.35;;;;;;;;;;5087690;28;20061;-71
2022/11/21 04:37:45;;;;;;;26.58;19.23;;;;;;;;;;5085123;28;20044;-71
2022/11/21 04:40:11;;;;;;;27.95;21.13;;;;;;;;;;5088538;28;20048;-71
2022/11/21 04:42:40;;;;;;;30.00;20.52;;;;;;;;;;5086864;28;20044;-69
2022/11/21 04:45:07;;;;;;;30.38;20.45;;;;;;;;;;5086886;28;20067;-70
2022/11/21 04:47:35;;;;;;;29.75;19.88;;;;;;;;;;5087511;28;20046;-72
2022/11/21 04:50:01;;;;;;;32.08;21.90;;;;;;;;;;5083798;28;20056;-69
2022/11/21 04:52:27;;;;;;;24.15;16.52;;;;;;;;;;5088642;28;20050;-71
2022/11/21 04:54:53;;;;;;;23.55;16.38;;;;;;;;;;5088474;28;20071;-71
2022/11/21 04:57:19;;;;;;;30.33;19.92;;;;;;;;;;5086588;28;20043;-71
2022/11/21 04:59:45;;;;;;;28.02;20.33;;;;;;;;;;5087083;28;20044;-71
2022/11/21 05:02:11;;;;;;;29.90;20.02;;;;;;;;;;5083173;28;20044;-70
2022/11/21 05:04:38;;;;;;;32.58;20.92;;;;;;;;;;5087397;28;20397;-71
2022/11/21 05:07:04;;;;;;;29.75;20.70;;;;;;;;;;5085751;28;20512;-71
2022/11/21 05:09:30;;;;;;;31.42;20.92;;;;;;;;;;5085834;28;20039;-71
2022/11/21 05:14:40;;;;;;;29.15;19.95;;;;;;;;;;5083407;28;20048;-70
2022/11/21 05:17:06;;;;;;;28.05;19.00;;;;;;;;;;5086908;28;20575;-70
2022/11/21 05:19:33;;;;;;;28.77;19.33;;;;;;;;;;5083951;28;20047;-71
2022/11/21 05:21:59;;;;;;;34.53;22.10;;;;;;;;;;5081038;28;20127;-71
2022/11/21 05:24:24;;;;;;;33.33;21.02;;;;;;;;;;5080853;28;20139;-70
2022/11/21 05:26:50;;;;;;;32.38;20.92;;;;;;;;;;5086065;28;20048;-70
2022/11/21 05:29:16;;;;;;;32.70;20.92;;;;;;;;;;5083817;28;20196;-70
2022/11/21 05:31:42;;;;;;;32.35;21.20;;;;;;;;;;5087096;28;20046;-70
2022/11/21 05:34:08;;;;;;;30.90;21.13;;;;;;;;;;5085036;28;20499;-68
2022/11/21 05:36:34;;;;;;;31.23;20.60;;;;;;;;;;5085530;28;20077;-69
2022/11/21 05:39:00;;;;;;;31.05;19.45;;;;;;;;;;5086078;28;20529;-70
2022/11/21 05:41:26;;;;;;;29.88;20.23;;;;;;;;;;5100975;28;20035;-69
2022/11/21 05:43:52;;;;;;;29.60;20.58;;;;;;;;;;5082332;28;20050;-68
2022/11/21 05:46:19;;;;;;;31.23;20.63;;;;;;;;;;5083023;27;20081;-69
2022/11/21 05:48:46;;;;;;;29.00;19.65;;;;;;;;;;5083161;28;20058;-68
2022/11/21 05:51:12;;;;;;;30.52;20.27;;;;;;;;;;5082748;28;20456;-69
2022/11/21 05:53:38;;;;;;;32.17;19.65;;;;;;;;;;5086263;28;20040;-68
2022/11/21 05:56:05;;;;;;;29.25;19.65;;;;;;;;;;5083848;28;20047;-69
2022/11/21 05:58:32;;;;;;;34.50;21.40;;;;;;;;;;5101039;28;20039;-69
2022/11/21 06:00:58;;;;;;;32.65;22.52;;;;;;;;;;5080588;28;20414;-68
2022/11/21 06:03:29;;;;;;;33.05;22.88;;;;;;;;;;5082282;28;20036;-68
2022/11/21 06:06:12;;;;;;;37.95;23.30;;;;;;;;;;5082515;28;20429;-68
2022/11/21 06:08:42;;;;;;;41.00;24.17;;;;;;;;;;5081203;27;20047;-68
2022/11/21 06:11:09;;;;;;;36.83;22.75;;;;;;;;;;5081889;28;20101;-68
2022/11/21 06:13:36;;;;;;;35.42;23.33;;;;;;;;;;5082386;28;20036;-69
2022/11/21 06:16:12;;;;;;;35.08;22.55;;;;;;;;;;5082633;28;20039;-68
2022/11/21 06:18:39;;;;;;;35.58;24.20;;;;;;;;;;5082906;28;20058;-68
2022/11/21 06:21:16;;;;;;;40.17;26.55;;;;;;;;;;5099433;28;20451;-69
2022/11/21 06:23:42;;;;;;;40.22;26.42;;;;;;;;;;5102450;28;20035;-68
2022/11/21 06:26:11;;;;;;;42.55;27.20;;;;;;;;;;5082831;28;20063;-68
2022/11/21 06:28:38;;;;;;;38.95;25.92;;;;;;;;;;5083583;27;20065;-69
2022/11/21 06:31:05;;;;;;;42.38;28.00;;;;;;;;;;5082284;28;20074;-69
2022/11/21 06:33:31;;;;;;;45.78;28.38;;;;;;;;;;5081898;28;20082;-67
2022/11/21 06:35:57;;;;;;;45.15;28.27;;;;;;;;;;5082188;28;20397;-68
2022/11/21 06:38:23;;;;;;;43.40;27.30;;;;;;;;;;5078022;28;20050;-68
2022/11/21 06:40:49;;;;;;;39.25;26.50;;;;;;;;;;5080775;28;20052;-70
2022/11/21 06:43:15;;;;;;;35.25;23.77;;;;;;;;;;5080843;28;20143;-70
2022/11/21 06:45:41;;;;;;;39.28;25.13;;;;;;;;;;5080479;28;20043;-68
2022/11/21 06:48:07;;;;;;;40.50;26.20;;;;;;;;;;5102579;28;20744;-70
2022/11/21 06:50:33;;;;;;;42.25;26.15;;;;;;;;;;5082620;28;20047;-69
2022/11/21 06:53:00;;;;;;;42.63;28.17;;;;;;;;;;5079659;28;20051;-69
2022/11/21 06:55:28;;;;;;;42.42;27.02;;;;;;;;;;5083142;28;20051;-69
2022/11/21 06:57:56;;;;;;;40.70;26.08;;;;;;;;;;5103253;28;21573;-69
2022/11/21 07:00:23;;;;;;;42.33;27.60;;;;;;;;;;5079104;28;20046;-69
2022/11/21 07:02:49;;;;;;;41.78;27.17;;;;;;;;;;5079454;28;20040;-67
2022/11/21 07:05:15;;;;;;;49.55;28.10;;;;;;;;;;5086447;28;20055;-67
2022/11/21 07:07:41;;;;;;;39.80;26.52;;;;;;;;;;5079983;28;20127;-70
2022/11/21 07:10:07;;;;;;;43.15;27.48;;;;;;;;;;5080194;28;20089;-72
2022/11/21 07:15:18;;;;;;;44.40;26.83;;;;;;;;;;5094961;28;20039;-69
2022/11/21 07:17:44;;;;;;;40.55;25.83;;;;;;;;;;5098324;28;20046;-70
2022/11/21 07:20:11;;;;;;;38.63;24.58;;;;;;;;;;5076964;28;20467;-69
2022/11/21 07:22:37;;;;;;;44.55;26.90;;;;;;;;;;5100016;28;20040;-69
2022/11/21 07:25:03;;;;;;;38.60;26.10;;;;;;;;;;5079610;28;20040;-68
2022/11/21 07:27:29;;;;;;;42.50;26.23;;;;;;;;;;5064540;28;20047;-70
2022/11/21 07:29:58;;;;;;;41.22;26.27;;;;;;;;;;5081506;28;20046;-69
2022/11/21 07:32:24;;;;;;;42.55;26.23;;;;;;;;;;5081562;28;20043;-68
2022/11/21 07:34:50;;;;;;;41.67;25.73;;;;;;;;;;5083337;28;20067;-68
2022/11/21 07:37:16;;;;;;;39.63;25.42;;;;;;;;;;5080944;28;20160;-69
2022/11/21 07:39:42;;;;;;;43.30;25.52;;;;;;;;;;5083895;28;20047;-70
2022/11/21 07:42:08;;;;;;;40.17;25.35;;;;;;;;;;5117659;28;20044;-70
2022/11/21 07:44:34;;;;;;;41.33;25.10;;;;;;;;;;5078828;28;20043;-68
2022/11/21 07:47:00;;;;;;;43.78;26.13;;;;;;;;;;5082298;28;20451;-67
2022/11/21 07:49:26;;;;;;;41.65;27.17;;;;;;;;;;5084047;28;20047;-67
2022/11/21 07:51:52;;;;;;;44.55;27.70;;;;;;;;;;5099049;28;20039;-68
2022/11/21 07:54:18;;;;;;;44.70;26.38;;;;;;;;;;5085604;28;20048;-67
2022/11/21 07:56:44;;;;;;;48.03;27.73;;;;;;;;;;5083658;28;20035;-69
2022/11/21 07:59:10;;;;;;;50.30;29.95;;;;;;;;;;5079587;28;20105;-69
2022/11/21 08:01:36;;;;;;;49.08;29.67;;;;;;;;;;5072087;28;20048;-66
2022/11/21 08:04:02;;;;;;;58.67;31.13;;;;;;;;;;5085108;28;20074;-67
2022/11/21 08:06:28;;;;;;;55.10;32.08;;;;;;;;;;5080311;28;20050;-68
2022/11/21 08:08:54;;;;;;;52.10;31.63;;;;;;;;;;5104953;27;20409;-67
2022/11/21 08:11:20;;;;;;;53.67;32.42;;;;;;;;;;5083110;28;20039;-67
2022/11/21 08:13:47;;;;;;;52.30;32.38;;;;;;;;;;5082573;28;20143;-66
2022/11/21 08:16:13;;;;;;;49.28;30.65;;;;;;;;;;5103292;28;20036;-68
2022/11/21 08:18:39;;;;;;;48.55;30.85;;;;;;;;;;5082794;28;20493;-68
2022/11/21 08:21:05;;;;;;;50.35;31.13;;;;;;;;;;5085734;28;20148;-68
2022/11/21 08:23:31;;;;;;;51.60;31.45;;;;;;;;;;5083165;28;20171;-66
2022/11/21 08:25:57;;;;;;;54.47;31.45;;;;;;;;;;5083291;28;20040;-68
2022/11/21 08:28:23;;;;;;;55.20;32.28;;;;;;;;;;5103976;27;20081;-68
2022/11/21 08:30:49;;;;;;;55.08;31.10;;;;;;;;;;5086458;28;20460;-69
2022/11/21 08:33:15;;;;;;;56.83;29.67;;;;;;;;;;5085251;28;20040;-68
2022/11/21 08:35:41;;;;;;;58.05;29.85;;;;;;;;;;5082415;28;20134;-67
2022/11/21 08:38:08;;;;;;;69.13;31.85;;;;;;;;;;5082779;28;20129;-67
2022/11/21 08:40:34;;;;;;;76.10;27.40;;;;;;;;;;5084986;28;20036;-69
2022/11/21 08:43:08;;;;;;;69.78;27.40;;;;;;;;;;5085234;28;20039;-69
2022/11/21 08:45:34;;;;;;;63.33;28.13;;;;;;;;;;5085205;28;20130;-69
2022/11/21 08:48:01;;;;;;;81.85;29.08;;;;;;;;;;5085425;28;20064;-68
2022/11/21 08:50:27;;;;;;;73.20;27.17;;;;;;;;;;5100067;28;20047;-67
2022/11/21 08:52:53;;;;;;;64.68;26.63;;;;;;;;;;5085924;28;20442;-68
2022/11/21 08:55:20;;;;;;;80.80;26.75;;;;;;;;;;5083085;28;20135;-69
2022/11/21 08:57:46;;;;;;;75.45;25.95;;;;;;;;;;5083931;28;20072;-69
2022/11/21 09:00:13;;;;;;;45.60;27.58;;;;;;;;;;5085728;28;20048;-69
2022/11/21 09:02:39;;;;;;;53.38;24.63;;;;;;;;;;5081858;28;20400;-68
2022/11/21 09:05:05;;;;;;;49.55;24.00;;;;;;;;;;5082291;28;20085;-68
2022/11/21 09:07:31;;;;;;;70.15;26.65;;;;;;;;;;5083351;28;20602;-69
2022/11/21 09:09:57;;;;;;;80.13;24.73;;;;;;;;;;5083222;28;20044;-68
2022/11/21 09:12:22;;;;;;;53.95;23.02;;;;;;;;;;5098085;28;20047;-67
2022/11/21 09:20:18;;;;;;;71.18;26.25;;;;;;;;;;5079196;27;20043;-68
2022/11/21 09:22:44;;;;;;;70.15;28.58;;;;;;;;;;5099762;27;20456;-68
2022/11/21 09:25:10;;;;;;;60.28;27.50;;;;;;;;;;5087712;28;20047;-68
2022/11/21 09:27:36;;;;;;;94.10;26.83;;;;;;;;;;5097756;28;20079;-69
2022/11/21 09:30:02;;;;;;;63.45;25.60;;;;;;;;;;5077108;28;20067;-69
2022/11/21 09:32:28;;;;;;;49.00;24.55;;;;;;;;;;5079426;27;20047;-68
2022/11/21 09:34:53;;;;;;;41.10;25.10;;;;;;;;;;5086614;27;20071;-69
2022/11/21 09:37:19;;;;;;;47.65;26.75;;;;;;;;;;5100490;27;20051;-70
2022/11/21 09:39:45;;;;;;;56.30;27.58;;;;;;;;;;5083748;28;20063;-70
2022/11/21 09:42:31;;;;;;;48.55;26.88;;;;;;;;;;5085426;28;20049;-70
2022/11/21 09:45:04;;;;;;;57.17;26.23;;;;;;;;;;5080309;28;20425;-69
2022/11/21 09:47:32;;;;;;;47.90;26.75;;;;;;;;;;5079604;28;20039;-69
2022/11/21 09:50:06;;;;;;;44.65;24.90;;;;;;;;;;5084564;28;20051;-69
2022/11/21 09:52:41;;;;;;;54.58;25.92;;;;;;;;;;5082848;28;20056;-70
2022/11/21 09:55:26;;;;;;;57.03;25.67;;;;;;;;;;5083366;28;20079;-69
2022/11/21 09:57:52;;;;;;;45.90;25.15;;;;;;;;;;5084277;28;20058;-70
2022/11/21 10:00:20;;;;;;;39.00;24.50;;;;;;;;;;5084382;28;20422;-72
2022/11/21 10:02:46;;;;;;;42.60;24.73;;;;;;;;;;5081422;28;20040;-70
2022/11/21 10:05:13;;;;;;;46.92;25.17;;;;;;;;;;5102717;28;20138;-70
2022/11/21 10:07:39;;;;;;;50.42;27.05;;;;;;;;;;5083737;28;20050;-70
2022/11/21 10:10:16;;;;;;;45.28;25.70;;;;;;;;;;5083750;28;20104;-69
2022/11/21 10:13:01;;;;;;;57.33;27.13;;;;;;;;;;5066277;28;21176;-70
2022/11/21 10:15:41;;;;;;;45.63;26.30;;;;;;;;;;5080593;28;20486;-68
2022/11/21 10:18:17;;;;;;;42.75;27.00;;;;;;;;;;5080005;28;20113;-68
2022/11/21 10:21:02;;;;;;;48.92;27.23;;;;;;;;;;5083030;28;20044;-67
2022/11/21 10:23:47;;;;;;;50.30;28.58;;;;;;;;;;5082191;28;20961;-68
2022/11/21 10:26:20;;;;;;;43.75;26.30;;;;;;;;;;5080624;28;20048;-67
2022/11/21 10:28:51;;;;;;;44.47;27.73;;;;;;;;;;5084453;28;20142;-67
2022/11/21 10:31:17;;;;;;;45.22;27.27;;;;;;;;;;5100861;28;20425;-67
2022/11/21 10:33:43;;;;;;;46.60;25.27;;;;;;;;;;5078994;28;20123;-66
2022/11/21 10:36:22;;;;;;;45.90;26.95;;;;;;;;;;5098793;28;20125;-66
2022/11/21 10:38:50;;;;;;;45.83;25.55;;;;;;;;;;5085118;28;20092;-66
2022/11/21 10:41:18;;;;;;;40.15;25.30;;;;;;;;;;5102981;28;20084;-68
2022/11/21 10:46:55;;;;;;;42.17;25.85;;;;;;;;;;5100375;28;20075;-67
2022/11/21 10:49:22;;;;;;;38.53;24.63;;;;;;;;;;5080739;28;20055;-67
2022/11/21 10:51:52;;;;;;;41.75;26.00;;;;;;;;;;5079377;28;20058;-66
2022/11/21 10:54:33;;;;;;;44.03;26.15;;;;;;;;;;5080234;27;20040;-68
2022/11/21 10:57:07;;;;;;;41.70;25.38;;;;;;;;;;5101996;28;20035;-68
2022/11/21 10:59:33;;;;;;;45.28;26.65;;;;;;;;;;5100605;27;20055;-67
2022/11/21 11:01:59;;;;;;;40.38;26.05;;;;;;;;;;5102324;28;20048;-69
2022/11/21 11:04:34;;;;;;;37.75;25.60;;;;;;;;;;5081384;28;20073;-68
2022/11/21 11:07:19;;;;;;;39.97;24.45;;;;;;;;;;5084708;28;20094;-67
2022/11/21 11:09:46;;;;;;;31.13;21.15;;;;;;;;;;5099405;28;20052;-69
2022/11/21 11:15:17;;;;;;;36.15;24.25;;;;;;;;;;5081075;28;20047;-69
2022/11/21 11:17:48;;;;;;;32.22;21.98;;;;;;;;;;5081035;28;20190;-69
2022/11/21 11:20:31;;;;;;;31.67;22.27;;;;;;;;;;5079008;28;20113;-67
2022/11/21 11:22:57;;;;;;;28.75;21.02;;;;;;;;;;5080643;28;20069;-69
2022/11/21 11:25:23;;;;;;;29.30;21.00;;;;;;;;;;5082553;28;20502;-69
2022/11/21 11:27:49;;;;;;;29.48;20.88;;;;;;;;;;5082058;28;20063;-69
2022/11/21 11:30:16;;;;;;;27.83;20.38;;;;;;;;;;5081242;28;20066;-69
2022/11/21 11:32:43;;;;;;;26.73;19.35;;;;;;;;;;5082177;28;20052;-68
2022/11/21 11:35:29;;;;;;;27.67;20.23;;;;;;;;;;5084671;28;20055;-68
2022/11/21 11:37:55;;;;;;;28.40;20.45;;;;;;;;;;5085398;28;20578;-67
2022/11/21 11:40:21;;;;;;;26.42;19.50;;;;;;;;;;5083066;28;20048;-67
2022/11/21 11:48:49;;;;;;;24.80;17.63;;;;;;;;;;5087285;27;20108;-68
2022/11/21 11:51:34;;;;;;;24.83;18.13;;;;;;;;;;5103149;28;20044;-67
2022/11/21 11:54:03;;;;;;;23.58;17.52;;;;;;;;;;5087809;27;20074;-67
2022/11/21 11:56:32;;;;;;;22.77;16.80;;;;;;;;;;5088501;28;20078;-68
2022/11/21 11:59:02;;;;;;;25.23;18.80;;;;;;;;;;5082962;28;20131;-67
2022/11/21 12:01:41;;;;;;;23.20;16.80;;;;;;;;;;5090765;28;20157;-67
2022/11/21 12:04:10;;;;;;;25.40;18.17;;;;;;;;;;5098205;28;20048;-68
2022/11/21 12:06:56;;;;;;;21.80;16.38;;;;;;;;;;5092060;28;20036;-68
2022/11/21 12:09:34;;;;;;;21.30;16.52;;;;;;;;;;5088282;28;20047;-68
2022/11/21 12:12:10;;;;;;;21.45;16.10;;;;;;;;;;5103190;27;20051;-68
2022/11/21 12:17:33;;;;;;;20.25;15.85;;;;;;;;;;5085685;28;20048;-67
2022/11/21 12:20:01;;;;;;;20.38;15.88;;;;;;;;;;5078705;28;20051;-66
2022/11/21 12:22:27;;;;;;;19.38;15.27;;;;;;;;;;5093118;27;20043;-67
2022/11/21 12:24:53;;;;;;;19.67;15.40;;;;;;;;;;5106067;28;20050;-66
2022/11/21 12:27:19;;;;;;;18.00;14.00;;;;;;;;;;5091990;28;20039;-67
2022/11/21 12:29:58;;;;;;;23.85;14.98;;;;;;;;;;5086205;28;20501;-67
2022/11/21 12:32:24;;;;;;;21.08;15.88;;;;;;;;;;5084437;28;20048;-67
2022/11/21 12:35:02;;;;;;;20.73;15.80;;;;;;;;;;5109309;28;20121;-67
2022/11/21 12:37:45;;;;;;;17.05;13.70;;;;;;;;;;5082599;28;20044;-68
2022/11/21 12:40:11;;;;;;;;;;;;;;;;;;5109114;27;20040;-67
2022/11/21 12:42:49;;;;;;;18.67;14.02;;;;;;;;;;5091127;28;20285;-66
2022/11/21 12:45:31;;;;;;;16.13;12.70;;;;;;;;;;5085388;28;20054;-66
2022/11/21 12:54:32;;;;;;;19.55;14.98;;;;;;;;;;5082350;28;20040;-66
2022/11/21 12:57:17;;;;;;;20.08;15.32;;;;;;;;;;5086755;28;20050;-67
2022/11/21 12:59:47;;;;;;;22.30;16.48;;;;;;;;;;5082303;28;20075;-66
2022/11/21 13:02:23;;;;;;;21.17;16.00;;;;;;;;;;5088326;28;20047;-67
2022/11/21 13:04:50;;;;;;;21.45;16.20;;;;;;;;;;5080233;28;20491;-67
2022/11/21 13:07:17;;;;;;;20.63;16.08;;;;;;;;;;5083983;28;20071;-65
2022/11/21 13:09:46;;;;;;;22.73;16.88;;;;;;;;;;5108912;28;20032;-67
2022/11/21 13:12:23;;;;;;;23.30;16.60;;;;;;;;;;5083973;28;20079;-67
2022/11/21 13:14:56;;;;;;;24.42;18.27;;;;;;;;;;5107288;27;20054;-66
2022/11/21 13:17:28;;;;;;;24.90;18.10;;;;;;;;;;5088945;28;20071;-67
2022/11/21 13:20:18;;;;;;;27.52;19.02;;;;;;;;;;5099648;28;20086;-67
2022/11/21 13:22:44;;;;;;;26.80;19.05;;;;;;;;;;5099717;28;20051;-66
2022/11/21 13:25:10;;;;;;;26.08;18.73;;;;;;;;;;5084576;28;20051;-66
2022/11/21 13:27:38;;;;;;;30.63;20.27;;;;;;;;;;5083100;28;20031;-66
2022/11/21 13:30:14;;;;;;;28.45;20.13;;;;;;;;;;5082769;28;20040;-66
2022/11/21 13:32:40;;;;;;;28.73;20.67;;;;;;;;;;5083775;28;20111;-67
2022/11/21 13:35:18;;;;;;;33.05;20.83;;;;;;;;;;5101545;28;20058;-67
2022/11/21 13:38:03;;;;;;;32.25;21.20;;;;;;;;;;5083756;28;20047;-67
2022/11/21 13:40:29;;;;;;;33.03;20.40;;;;;;;;;;5102706;28;20401;-67
2022/11/21 13:43:14;;;;;;;33.22;21.15;;;;;;;;;;5100048;28;20032;-66
2022/11/21 13:45:47;;;;;;;29.92;20.75;;;;;;;;;;5082180;28;20040;-66
2022/11/21 13:48:13;;;;;;;;;;;;;;;;;;5086203;27;20499;-66
2022/11/21 13:51:14;;;;;;;33.75;21.10;;;;;;;;;;5076966;28;19960;-67
2022/11/21 13:54:00;;;;;;;30.73;21.40;;;;;;;;;;5005168;28;20075;-66
2022/11/21 13:56:33;;;;;;;33.60;21.60;;;;;;;;;;5040671;28;20391;-67
2022/11/21 13:58:59;;;;;;;;;;;;;;;;;;5089485;28;20087;-67
2022/11/21 14:01:28;;;;;;;33.70;21.52;;;;;;;;;;5086952;28;20064;-66
2022/11/21 14:04:13;;;;;;;36.35;22.52;;;;;;;;;;5081163;28;20043;-66
2022/11/21 14:06:42;;;;;;;32.83;21.77;;;;;;;;;;5087774;28;20538;-69
2022/11/21 14:09:17;;;;;;;35.80;22.75;;;;;;;;;;5083727;28;20052;-68
2022/11/21 14:11:48;;;;;;;37.85;23.52;;;;;;;;;;5082179;28;20043;-68
2022/11/21 14:14:24;;;;;;;38.60;23.83;;;;;;;;;;5080697;28;20046;-67
2022/11/21 14:16:54;;;;;;;44.17;24.30;;;;;;;;;;5083772;28;20056;-69
2022/11/21 14:19:20;;;;;;;37.90;23.80;;;;;;;;;;5089348;28;20165;-68
2022/11/21 14:21:47;;;;;;;47.25;25.67;;;;;;;;;;5104735;27;20144;-68
2022/11/21 14:24:15;;;;;;;44.00;24.52;;;;;;;;;;5086108;28;20461;-69
2022/11/21 14:26:45;;;;;;;42.20;24.77;;;;;;;;;;5082341;28;21343;-69
2022/11/21 14:29:17;;;;;;;42.88;25.60;;;;;;;;;;5083113;28;20047;-68
2022/11/21 14:31:47;;;;;;;45.78;24.95;;;;;;;;;;5099524;28;20044;-69
2022/11/21 14:34:23;;;;;;;48.30;26.10;;;;;;;;;;5082300;28;20044;-68
2022/11/21 14:36:49;;;;;;;51.53;25.77;;;;;;;;;;5086900;28;20061;-68
2022/11/21 14:39:16;;;;;;;56.58;27.95;;;;;;;;;;5069172;28;20047;-69
2022/11/21 14:41:44;;;;;;;50.90;26.58;;;;;;;;;;5081824;28;20387;-68
2022/11/21 14:44:10;;;;;;;55.85;26.65;;;;;;;;;;5085837;28;21698;-68
2022/11/21 14:46:37;;;;;;;49.97;27.42;;;;;;;;;;5085446;28;20050;-69
2022/11/21 14:49:15;;;;;;;60.03;27.95;;;;;;;;;;5080954;28;20093;-68
2022/11/21 14:51:43;;;;;;;62.63;29.00;;;;;;;;;;5097223;28;20044;-69
2022/11/21 14:54:12;;;;;;;68.18;29.48;;;;;;;;;;5098016;28;20104;-69
2022/11/21 14:56:39;;;;;;;60.92;28.95;;;;;;;;;;5101739;28;20043;-69
2022/11/21 14:59:11;;;;;;;67.70;29.73;;;;;;;;;;5081225;28;20419;-68